Flight Track Log - Related Links

Times and Time Zones

All times are in EST time to prevent confusion due to time zone crossing. See the ASH3759 flight status page for this flight to view local times or setup timezone preferences in your user account.


Time Position Orientation Groundspeed Altitude Reporting Facility
EST Latitude Longitude Course Direction KTS MPH feet Rate Location/Type
Sat 02:59:43 PM 42.0167 -87.9500 346° North 162 186 2,300  Level Chicago TRACON
Sat 03:00:43 PM 42.0500 -88.0000 312° West 203 234 4,700 2,579 Climbing Chicago TRACON
Sat 03:01:37 PM 42.1167 -88.0167 349° North 248 285 7,200 2,753 Climbing Chicago TRACON
Sat 03:02:08 PM 42.1428 -88.0264 345° North 253 291 8,600 2,645 Climbing Chicago Center
Sat 03:03:00 PM 42.4320 -88.0531 352° North  Level FlightAware Approximate
Sat 03:03:10 PM 42.2167 -88.0303 358° North 264 304 11,300  Level Chicago Center
Sat 03:04:00 PM 42.5247 -88.0862 345° North  Level FlightAware Approximate
Sat 03:04:12 PM 42.2967 -88.0314 359° North 285 328 13,700  Level Chicago Center
Sat 03:05:00 PM 42.0732 -87.9386 346° North  Level FlightAware Approximate
Sat 03:05:13 PM 42.3744 -88.0286 North 299 344 16,200  Level Chicago Center
Sat 03:06:15 PM 42.4592 -88.0228 North 305 351 18,100 1,512 Climbing Chicago Center
Sat 03:07:16 PM 42.5619 -88.0547 347° North 315 362 19,300 1,463 Climbing Chicago Center
Sat 03:08:18 PM 42.6550 -88.0931 343° North 346 398 21,100 1,742 Climbing Chicago Center
Sat 03:09:20 PM 42.7478 -88.1311 343° North 349 402 22,900 1,610 Climbing Chicago Center
Sat 03:10:21 PM 42.8417 -88.1692 343° North 352 405 24,400 1,415 Climbing Chicago Center
Sat 03:11:23 PM 42.9381 -88.2103 343° North 360 414 25,800 1,317 Climbing Chicago Center
Sat 03:12:24 PM 43.0372 -88.2517 343° North 370 426 27,100 1,220 Climbing Chicago Center
Sat 03:13:26 PM 43.1344 -88.3006 340° North 371 427 28,300 1,113 Climbing Chicago Center
Sat 03:14:28 PM 43.2019 -88.4253 307° West 339 390 29,400 829 Climbing Chicago Center
Sat 03:15:29 PM 43.2606 -88.5292 308° West 339 390 30,000 293 Climbing Chicago Center
Sat 03:16:31 PM 43.3253 -88.6394 309° West 362 417 30,000  Level Chicago Center
Sat 03:17:32 PM 43.3906 -88.7517 309° West 369 425 30,000  Level Chicago Center
Sat 03:18:34 PM 43.4561 -88.8650 309° West 376 433 30,000  Level Chicago Center
Sat 03:19:35 PM 43.5206 -88.9778 308° West 375 432 30,000  Level Chicago Center
Sat 03:20:37 PM 43.5856 -89.0906 309° West 374 430 30,000  Level Chicago Center
Sat 03:21:38 PM 43.6494 -89.2019 308° West 373 429 30,000  Level Chicago Center
Sat 03:22:40 PM 43.7133 -89.3153 308° West 373 429 30,000  Level Chicago Center
Sat 03:23:41 PM 43.7772 -89.4289 308° West 375 432 30,000  Level Chicago Center
Sat 03:24:43 PM 43.8422 -89.5422 309° West 376 433 30,000  Level Chicago Center
Sat 03:25:44 PM 43.9208 -89.6789 309° West 378 435 30,000  Level Chicago Center
Sat 03:26:46 PM 43.9858 -89.7950 308° West 380 437 30,000  Level Chicago Center
Sat 03:27:47 PM 44.0500 -89.9111 308° West 380 437 30,000  Level Chicago Center
Sat 03:28:49 PM 44.1086 -90.0344 304° West 384 442 30,000  Level Chicago Center
Sat 03:29:50 PM 44.1622 -90.1603 301° West 380 437 30,000  Level Chicago Center
Sat 03:30:51 PM 44.2208 -90.2956 301° West 380 437 30,000  Level Chicago Center
Sat 03:31:53 PM 44.2753 -90.4225 301° West 382 440 30,000  Level Chicago Center
Sat 03:33:03 PM 44.3372 -90.5664 301° West 382 440 30,000  Level Minneapolis Center
Sat 03:34:04 PM 44.3922 -90.6953 301° West 383 441 30,000  Level Minneapolis Center
Sat 03:35:06 PM 44.4469 -90.8247 301° West 386 444 30,000  Level Minneapolis Center
Sat 03:36:07 PM 44.5067 -90.9678 300° West 387 445 30,000 -738 Level Minneapolis Center
Sat 03:37:08 PM 44.5617 -91.0975 301° West 388 447 28,500 -1,659 Descending Minneapolis Center
Sat 03:38:10 PM 44.6158 -91.2264 301° West 388 447 26,600 -1,951 Descending Minneapolis Center
Sat 03:39:11 PM 44.6669 -91.3481 301° West 372 428 24,500 -2,164 Descending Minneapolis Center
Sat 03:40:12 PM 44.7250 -91.4900 300° West 358 412 22,200 -2,146 Descending Minneapolis Center
Sat 03:41:14 PM 44.7719 -91.6050 300° West 347 399 20,100 -2,000 Descending Minneapolis Center
Sat 03:42:15 PM 44.8183 -91.7183 300° West 341 392 18,100 -1,869 Descending Minneapolis Center
Sat 03:43:16 PM 44.8636 -91.8289 300° West 334 384 16,300 -1,672 Descending Minneapolis Center
Sat 03:44:17 PM 44.9072 -91.9369 300° West 322 371 14,700 -1,561 Descending Minneapolis Center
Sat 03:45:19 PM 44.9511 -92.0450 300° West 322 371 13,100 -1,561 Descending Minneapolis Center
Sat 03:46:20 PM 44.9961 -92.1550 300° West 322 371 11,500 -1,033 Descending Minneapolis Center
Sat 03:47:21 PM 45.0386 -92.2625 299° West 320 368 11,000 -344 Descending Minneapolis Center
Sat 03:48:22 PM 45.0367 -92.3783 269° West 320 368 10,800 -439 Descending Minneapolis Center
Sat 03:49:24 PM 44.9931 -92.4900 241° Southwest 268 308 10,100 -1,024 Descending Minneapolis Center
Sat 03:50:25 PM 44.9636 -92.5692 242° Southwest 232 267 8,700 -1,475 Descending Minneapolis Center
Sat 03:51:26 PM 44.9333 -92.6447 241° Southwest 225 259 7,100 -829 Descending Minneapolis Center
Sat 03:52:28 PM 44.9039 -92.7231 242° Southwest 225 259 7,000 -585 Descending Minneapolis Center
Sat 03:53:29 PM 44.8731 -92.8017 241° Southwest 228 262 5,900 -1,082 Descending Minneapolis Center
Sat 03:54:30 PM 44.8428 -92.8808 242° Southwest 228 262 4,800 -1,082 Descending Minneapolis Center
Sat 03:55:31 PM 44.8261 -92.9667 255° West 228 262 3,700 -885 Descending Minneapolis Center
Sat 03:56:32 PM 44.8294 -93.0506 273° West 220 253 3,000 -585 Descending Minneapolis Center
Sat 03:57:34 PM 44.8422 -93.1028 289° West 140 161 2,500 -634 Descending Minneapolis Center
Sat 03:58:35 PM 44.8631 -93.1514 301° West 125 144 1,700 -787 Descending Minneapolis Center

Login

Don't have an account? Register now (free) for customized features, flight alerts, and more!